EGHI/SOU METAR and TAF weather

Enter ICAO airport designator
Station Type Date Time Source
EGHI METAR 2018/09/20 18:20 UTC NOAA

EGHI 201820Z 21016G27KT 9999 BKN018 18/14 Q1006


Station Type Date Time Source
EGHI Decoded METAR 2018/09/20 18:20 UTC NOAA

Southampton / Weather Centre, United Kingdom (EGHI) 50-54N 001-24W 0M
Sep 20, 2018 - 02:20 PM EDT / 2018.09.20 1820 UTC
Wind: from the SSW (210 degrees) at 18 MPH (16 KT) gusting to 31 MPH (27 KT):0
Visibility: greater than 7 mile(s):0
Sky conditions: mostly cloudy
Temperature: 64 F (18 C)
Dew Point: 57 F (14 C)
Relative Humidity: 77%
Pressure (altimeter): 29.71 in. Hg (1006 hPa)
ob: EGHI 201820Z 21016G27KT 9999 BKN018 18/14 Q1006
cycle: 18

Station Type Date Time Source
EGHI TAF 2016/03/02 12:00 UTC NOAA

TAF EGHI 021104Z 0212/0221 28015G25KT 9999 SCT020
TEMPO 0212/0221 29020G35KT PROB30
TEMPO 0212/0213 4000 SHRA BKN012CB
TEMPO 0218/0221 BKN014


Example: see airport list